sensor_id;sensor_type;location;lat;lon;timestamp;P1;durP1;ratioP1;P2;durP2;ratioP2
78672;SDS011;67988;60.086;30.354;2023-02-28T00:00:13;21.17;;;5.68;;
78672;SDS011;67988;60.086;30.354;2023-02-28T00:02:41;23.05;;;4.07;;
78672;SDS011;67988;60.086;30.354;2023-02-28T00:05:10;43.22;;;4.60;;
78672;SDS011;67988;60.086;30.354;2023-02-28T00:07:38;30.45;;;4.78;;
78672;SDS011;67988;60.086;30.354;2023-02-28T00:10:09;41.10;;;5.53;;
78672;SDS011;67988;60.086;30.354;2023-02-28T00:12:37;47.78;;;8.02;;
78672;SDS011;67988;60.086;30.354;2023-02-28T00:15:06;41.60;;;6.75;;
78672;SDS011;67988;60.086;30.354;2023-02-28T00:17:34;28.55;;;5.85;;
78672;SDS011;67988;60.086;30.354;2023-02-28T00:20:02;45.47;;;5.82;;
78672;SDS011;67988;60.086;30.354;2023-02-28T00:22:33;16.35;;;4.55;;
78672;SDS011;67988;60.086;30.354;2023-02-28T00:25:01;33.75;;;8.02;;
78672;SDS011;67988;60.086;30.354;2023-02-28T00:27:29;33.97;;;5.78;;
78672;SDS011;67988;60.086;30.354;2023-02-28T00:29:57;20.08;;;5.78;;
78672;SDS011;67988;60.086;30.354;2023-02-28T00:32:23;14.13;;;4.18;;
78672;SDS011;67988;60.086;30.354;2023-02-28T00:34:51;16.40;;;4.35;;
78672;SDS011;67988;60.086;30.354;2023-02-28T00:37:18;50.20;;;6.10;;
78672;SDS011;67988;60.086;30.354;2023-02-28T00:39:45;17.35;;;6.50;;
78672;SDS011;67988;60.086;30.354;2023-02-28T00:42:11;8.43;;;3.33;;
78672;SDS011;67988;60.086;30.354;2023-02-28T00:44:40;7.05;;;3.00;;
78672;SDS011;67988;60.086;30.354;2023-02-28T00:47:07;9.25;;;3.95;;
78672;SDS011;67988;60.086;30.354;2023-02-28T00:49:34;7.25;;;3.92;;
78672;SDS011;67988;60.086;30.354;2023-02-28T00:52:01;5.18;;;1.35;;
78672;SDS011;67988;60.086;30.354;2023-02-28T00:54:29;6.40;;;3.55;;
78672;SDS011;67988;60.086;30.354;2023-02-28T00:56:55;5.20;;;2.55;;
78672;SDS011;67988;60.086;30.354;2023-02-28T00:59:24;4.13;;;3.50;;
78672;SDS011;67988;60.086;30.354;2023-02-28T01:01:52;3.50;;;2.40;;
78672;SDS011;67988;60.086;30.354;2023-02-28T01:04:20;8.95;;;3.03;;
78672;SDS011;67988;60.086;30.354;2023-02-28T01:06:48;4.82;;;2.00;;
78672;SDS011;67988;60.086;30.354;2023-02-28T01:09:15;2.63;;;2.20;;
78672;SDS011;67988;60.086;30.354;2023-02-28T01:11:42;8.45;;;2.88;;
78672;SDS011;67988;60.086;30.354;2023-02-28T01:14:11;3.20;;;1.40;;
78672;SDS011;67988;60.086;30.354;2023-02-28T01:16:39;2.80;;;2.33;;
78672;SDS011;67988;60.086;30.354;2023-02-28T01:19:08;6.57;;;3.38;;
78672;SDS011;67988;60.086;30.354;2023-02-28T01:21:37;4.60;;;2.25;;
78672;SDS011;67988;60.086;30.354;2023-02-28T01:24:05;9.50;;;3.22;;
78672;SDS011;67988;60.086;30.354;2023-02-28T01:26:34;2.28;;;2.08;;
78672;SDS011;67988;60.086;30.354;2023-02-28T01:29:02;6.15;;;2.13;;
78672;SDS011;67988;60.086;30.354;2023-02-28T01:31:29;1.90;;;1.13;;
78672;SDS011;67988;60.086;30.354;2023-02-28T01:33:56;2.35;;;1.85;;
78672;SDS011;67988;60.086;30.354;2023-02-28T01:36:28;2.35;;;1.63;;
78672;SDS011;67988;60.086;30.354;2023-02-28T01:38:55;2.05;;;1.67;;
78672;SDS011;67988;60.086;30.354;2023-02-28T01:41:23;3.78;;;3.08;;
78672;SDS011;67988;60.086;30.354;2023-02-28T01:43:54;3.28;;;2.22;;
78672;SDS011;67988;60.086;30.354;2023-02-28T01:46:23;3.55;;;1.88;;
78672;SDS011;67988;60.086;30.354;2023-02-28T01:48:53;4.93;;;2.78;;
78672;SDS011;67988;60.086;30.354;2023-02-28T01:51:26;4.70;;;2.03;;
78672;SDS011;67988;60.086;30.354;2023-02-28T01:54:00;2.88;;;2.17;;
78672;SDS011;67988;60.086;30.354;2023-02-28T01:56:31;4.90;;;3.08;;
78672;SDS011;67988;60.086;30.354;2023-02-28T01:59:03;1.50;;;0.98;;
78672;SDS011;67988;60.086;30.354;2023-02-28T02:01:31;1.67;;;1.40;;
78672;SDS011;67988;60.086;30.354;2023-02-28T02:04:01;2.67;;;1.23;;
78672;SDS011;67988;60.086;30.354;2023-02-28T02:06:34;2.10;;;1.60;;
78672;SDS011;67988;60.086;30.354;2023-02-28T02:09:09;2.85;;;1.88;;
78672;SDS011;67988;60.086;30.354;2023-02-28T02:11:36;4.25;;;1.88;;
78672;SDS011;67988;60.086;30.354;2023-02-28T02:14:25;2.60;;;2.08;;
78672;SDS011;67988;60.086;30.354;2023-02-28T02:17:12;1.40;;;1.25;;
78672;SDS011;67988;60.086;30.354;2023-02-28T02:25:53;2.83;;;1.92;;
78672;SDS011;67988;60.086;30.354;2023-02-28T02:31:51;3.00;;;1.65;;
78672;SDS011;67988;60.086;30.354;2023-02-28T02:34:39;3.97;;;2.35;;
78672;SDS011;67988;60.086;30.354;2023-02-28T02:37:16;2.15;;;1.88;;
78672;SDS011;67988;60.086;30.354;2023-02-28T02:40:00;3.63;;;1.65;;
78672;SDS011;67988;60.086;30.354;2023-02-28T02:42:37;2.75;;;1.70;;
78672;SDS011;67988;60.086;30.354;2023-02-28T02:45:10;1.08;;;0.95;;
78672;SDS011;67988;60.086;30.354;2023-02-28T02:47:42;1.05;;;0.98;;
78672;SDS011;67988;60.086;30.354;2023-02-28T02:50:13;3.88;;;1.40;;
78672;SDS011;67988;60.086;30.354;2023-02-28T02:52:49;2.58;;;1.73;;
78672;SDS011;67988;60.086;30.354;2023-02-28T02:55:21;3.40;;;1.40;;
78672;SDS011;67988;60.086;30.354;2023-02-28T02:57:50;2.10;;;1.90;;
78672;SDS011;67988;60.086;30.354;2023-02-28T03:00:22;1.52;;;1.33;;
78672;SDS011;67988;60.086;30.354;2023-02-28T03:02:53;2.45;;;1.63;;
78672;SDS011;67988;60.086;30.354;2023-02-28T03:05:23;1.45;;;1.10;;
78672;SDS011;67988;60.086;30.354;2023-02-28T03:07:54;2.38;;;1.60;;
78672;SDS011;67988;60.086;30.354;2023-02-28T03:10:34;1.85;;;1.60;;
78672;SDS011;67988;60.086;30.354;2023-02-28T03:13:12;4.30;;;1.85;;
78672;SDS011;67988;60.086;30.354;2023-02-28T03:15:54;1.15;;;0.93;;
78672;SDS011;67988;60.086;30.354;2023-02-28T03:18:32;3.05;;;1.25;;
78672;SDS011;67988;60.086;30.354;2023-02-28T03:21:09;1.95;;;1.52;;
78672;SDS011;67988;60.086;30.354;2023-02-28T03:23:45;2.17;;;1.42;;
78672;SDS011;67988;60.086;30.354;2023-02-28T03:26:21;2.30;;;1.70;;
78672;SDS011;67988;60.086;30.354;2023-02-28T03:28:51;1.50;;;1.40;;
78672;SDS011;67988;60.086;30.354;2023-02-28T03:31:24;1.83;;;1.55;;
78672;SDS011;67988;60.086;30.354;2023-02-28T03:33:55;1.92;;;1.65;;
78672;SDS011;67988;60.086;30.354;2023-02-28T03:36:30;3.55;;;2.70;;
78672;SDS011;67988;60.086;30.354;2023-02-28T03:39:02;1.52;;;1.23;;
78672;SDS011;67988;60.086;30.354;2023-02-28T03:41:35;2.13;;;1.92;;
78672;SDS011;67988;60.086;30.354;2023-02-28T03:44:07;2.05;;;1.70;;
78672;SDS011;67988;60.086;30.354;2023-02-28T03:46:41;1.88;;;1.38;;
78672;SDS011;67988;60.086;30.354;2023-02-28T03:49:13;2.33;;;2.13;;
78672;SDS011;67988;60.086;30.354;2023-02-28T03:51:44;3.53;;;1.70;;
78672;SDS011;67988;60.086;30.354;2023-02-28T03:54:15;1.25;;;1.15;;
78672;SDS011;67988;60.086;30.354;2023-02-28T03:56:47;2.78;;;1.63;;
78672;SDS011;67988;60.086;30.354;2023-02-28T03:59:20;2.40;;;1.55;;
78672;SDS011;67988;60.086;30.354;2023-02-28T04:01:52;2.13;;;1.17;;
78672;SDS011;67988;60.086;30.354;2023-02-28T04:04:20;1.60;;;1.50;;
78672;SDS011;67988;60.086;30.354;2023-02-28T04:06:51;2.45;;;1.58;;
78672;SDS011;67988;60.086;30.354;2023-02-28T04:09:19;2.13;;;1.90;;
78672;SDS011;67988;60.086;30.354;2023-02-28T04:11:48;1.35;;;0.85;;
78672;SDS011;67988;60.086;30.354;2023-02-28T04:14:18;1.38;;;1.27;;
78672;SDS011;67988;60.086;30.354;2023-02-28T04:16:45;4.05;;;2.20;;
78672;SDS011;67988;60.086;30.354;2023-02-28T04:19:12;2.83;;;2.38;;
78672;SDS011;67988;60.086;30.354;2023-02-28T04:21:40;3.20;;;1.95;;
78672;SDS011;67988;60.086;30.354;2023-02-28T04:24:11;4.28;;;2.05;;
78672;SDS011;67988;60.086;30.354;2023-02-28T04:26:40;3.83;;;2.00;;
78672;SDS011;67988;60.086;30.354;2023-02-28T04:29:09;1.58;;;1.27;;
78672;SDS011;67988;60.086;30.354;2023-02-28T04:31:37;3.20;;;1.17;;
78672;SDS011;67988;60.086;30.354;2023-02-28T04:34:04;3.72;;;1.90;;
78672;SDS011;67988;60.086;30.354;2023-02-28T04:36:31;3.30;;;2.38;;
78672;SDS011;67988;60.086;30.354;2023-02-28T04:38:58;3.13;;;2.10;;
78672;SDS011;67988;60.086;30.354;2023-02-28T04:41:26;2.88;;;1.67;;
78672;SDS011;67988;60.086;30.354;2023-02-28T04:43:53;3.00;;;1.45;;
78672;SDS011;67988;60.086;30.354;2023-02-28T04:46:21;1.48;;;0.93;;
78672;SDS011;67988;60.086;30.354;2023-02-28T04:48:48;3.25;;;2.20;;
78672;SDS011;67988;60.086;30.354;2023-02-28T04:51:16;1.67;;;1.50;;
78672;SDS011;67988;60.086;30.354;2023-02-28T04:53:45;1.92;;;1.83;;
78672;SDS011;67988;60.086;30.354;2023-02-28T04:56:13;5.30;;;1.80;;
78672;SDS011;67988;60.086;30.354;2023-02-28T04:58:42;2.88;;;1.83;;
78672;SDS011;67988;60.086;30.354;2023-02-28T05:01:19;2.30;;;1.92;;
78672;SDS011;67988;60.086;30.354;2023-02-28T05:03:49;2.53;;;1.35;;
78672;SDS011;67988;60.086;30.354;2023-02-28T05:06:17;6.22;;;2.55;;
78672;SDS011;67988;60.086;30.354;2023-02-28T05:08:45;5.13;;;3.05;;
78672;SDS011;67988;60.086;30.354;2023-02-28T05:11:14;4.85;;;2.03;;
78672;SDS011;67988;60.086;30.354;2023-02-28T05:13:44;1.98;;;1.67;;
78672;SDS011;67988;60.086;30.354;2023-02-28T05:16:12;3.75;;;1.33;;
78672;SDS011;67988;60.086;30.354;2023-02-28T05:18:39;2.53;;;1.95;;
78672;SDS011;67988;60.086;30.354;2023-02-28T05:21:12;3.88;;;2.35;;
78672;SDS011;67988;60.086;30.354;2023-02-28T05:23:50;1.73;;;1.40;;
78672;SDS011;67988;60.086;30.354;2023-02-28T05:26:17;2.90;;;1.98;;
78672;SDS011;67988;60.086;30.354;2023-02-28T05:28:45;6.03;;;2.63;;
78672;SDS011;67988;60.086;30.354;2023-02-28T05:31:13;3.75;;;2.58;;
78672;SDS011;67988;60.086;30.354;2023-02-28T05:33:40;2.85;;;1.98;;
78672;SDS011;67988;60.086;30.354;2023-02-28T05:36:07;7.10;;;2.63;;
78672;SDS011;67988;60.086;30.354;2023-02-28T05:38:34;3.45;;;1.83;;
78672;SDS011;67988;60.086;30.354;2023-02-28T05:41:04;7.03;;;3.35;;
78672;SDS011;67988;60.086;30.354;2023-02-28T05:43:32;4.07;;;2.40;;
78672;SDS011;67988;60.086;30.354;2023-02-28T05:46:01;5.00;;;1.83;;
78672;SDS011;67988;60.086;30.354;2023-02-28T05:48:29;2.22;;;1.23;;
78672;SDS011;67988;60.086;30.354;2023-02-28T05:50:56;2.65;;;1.40;;
78672;SDS011;67988;60.086;30.354;2023-02-28T05:55:51;3.42;;;1.92;;
78672;SDS011;67988;60.086;30.354;2023-02-28T05:58:18;2.42;;;1.75;;
78672;SDS011;67988;60.086;30.354;2023-02-28T06:00:45;2.42;;;1.63;;
78672;SDS011;67988;60.086;30.354;2023-02-28T06:03:13;2.60;;;1.60;;
78672;SDS011;67988;60.086;30.354;2023-02-28T06:05:40;2.20;;;1.70;;
78672;SDS011;67988;60.086;30.354;2023-02-28T06:08:07;3.58;;;2.13;;
78672;SDS011;67988;60.086;30.354;2023-02-28T06:10:34;5.18;;;1.67;;
78672;SDS011;67988;60.086;30.354;2023-02-28T06:13:02;1.33;;;0.98;;
78672;SDS011;67988;60.086;30.354;2023-02-28T06:15:30;3.70;;;1.65;;
78672;SDS011;67988;60.086;30.354;2023-02-28T06:17:58;4.35;;;1.33;;
78672;SDS011;67988;60.086;30.354;2023-02-28T06:20:26;4.93;;;1.58;;
78672;SDS011;67988;60.086;30.354;2023-02-28T06:22:54;2.28;;;1.33;;
78672;SDS011;67988;60.086;30.354;2023-02-28T06:25:23;3.00;;;1.50;;
78672;SDS011;67988;60.086;30.354;2023-02-28T06:27:50;7.35;;;1.63;;
78672;SDS011;67988;60.086;30.354;2023-02-28T06:30:18;3.28;;;2.08;;
78672;SDS011;67988;60.086;30.354;2023-02-28T06:32:49;2.80;;;2.05;;
78672;SDS011;67988;60.086;30.354;2023-02-28T06:35:15;2.67;;;1.25;;
78672;SDS011;67988;60.086;30.354;2023-02-28T06:37:44;5.72;;;1.20;;
78672;SDS011;67988;60.086;30.354;2023-02-28T06:40:12;4.13;;;1.95;;
78672;SDS011;67988;60.086;30.354;2023-02-28T06:42:40;2.15;;;1.27;;
78672;SDS011;67988;60.086;30.354;2023-02-28T06:45:07;5.65;;;2.25;;
78672;SDS011;67988;60.086;30.354;2023-02-28T06:47:35;12.35;;;1.77;;
78672;SDS011;67988;60.086;30.354;2023-02-28T06:50:02;7.03;;;1.52;;
78672;SDS011;67988;60.086;30.354;2023-02-28T06:52:30;2.67;;;0.55;;
78672;SDS011;67988;60.086;30.354;2023-02-28T06:54:58;2.47;;;0.98;;
78672;SDS011;67988;60.086;30.354;2023-02-28T06:57:27;6.72;;;1.70;;
78672;SDS011;67988;60.086;30.354;2023-02-28T06:59:56;4.45;;;1.40;;
78672;SDS011;67988;60.086;30.354;2023-02-28T07:02:24;4.05;;;1.35;;
78672;SDS011;67988;60.086;30.354;2023-02-28T07:04:51;5.65;;;1.05;;
78672;SDS011;67988;60.086;30.354;2023-02-28T07:07:18;2.45;;;0.73;;
78672;SDS011;67988;60.086;30.354;2023-02-28T07:09:45;4.63;;;1.80;;
78672;SDS011;67988;60.086;30.354;2023-02-28T07:12:13;5.00;;;1.23;;
78672;SDS011;67988;60.086;30.354;2023-02-28T07:14:40;4.68;;;1.52;;
78672;SDS011;67988;60.086;30.354;2023-02-28T07:17:07;1.65;;;1.42;;
78672;SDS011;67988;60.086;30.354;2023-02-28T07:19:34;3.10;;;1.50;;
78672;SDS011;67988;60.086;30.354;2023-02-28T07:22:01;7.88;;;2.35;;
78672;SDS011;67988;60.086;30.354;2023-02-28T07:24:28;1.45;;;0.98;;
78672;SDS011;67988;60.086;30.354;2023-02-28T07:26:55;5.25;;;1.02;;
78672;SDS011;67988;60.086;30.354;2023-02-28T07:29:24;2.40;;;0.80;;
78672;SDS011;67988;60.086;30.354;2023-02-28T07:31:51;4.78;;;1.13;;
78672;SDS011;67988;60.086;30.354;2023-02-28T07:34:18;2.10;;;0.93;;
78672;SDS011;67988;60.086;30.354;2023-02-28T07:36:45;2.00;;;0.95;;
78672;SDS011;67988;60.086;30.354;2023-02-28T07:39:12;1.75;;;1.05;;
78672;SDS011;67988;60.086;30.354;2023-02-28T07:41:39;5.55;;;0.93;;
78672;SDS011;67988;60.086;30.354;2023-02-28T07:44:08;1.95;;;1.25;;
78672;SDS011;67988;60.086;30.354;2023-02-28T07:46:37;1.13;;;1.02;;
78672;SDS011;67988;60.086;30.354;2023-02-28T07:49:04;3.00;;;0.82;;
78672;SDS011;67988;60.086;30.354;2023-02-28T07:51:32;5.22;;;1.00;;
78672;SDS011;67988;60.086;30.354;2023-02-28T07:53:59;7.55;;;0.95;;
78672;SDS011;67988;60.086;30.354;2023-02-28T07:56:26;2.53;;;0.77;;
78672;SDS011;67988;60.086;30.354;2023-02-28T07:58:53;2.97;;;1.35;;
78672;SDS011;67988;60.086;30.354;2023-02-28T08:01:20;2.90;;;1.63;;
78672;SDS011;67988;60.086;30.354;2023-02-28T08:03:48;5.05;;;1.42;;
78672;SDS011;67988;60.086;30.354;2023-02-28T08:06:16;3.55;;;2.08;;
78672;SDS011;67988;60.086;30.354;2023-02-28T08:08:44;2.33;;;1.30;;
78672;SDS011;67988;60.086;30.354;2023-02-28T08:11:11;2.85;;;0.85;;
78672;SDS011;67988;60.086;30.354;2023-02-28T08:13:39;6.15;;;1.50;;
78672;SDS011;67988;60.086;30.354;2023-02-28T08:16:07;6.00;;;2.08;;
78672;SDS011;67988;60.086;30.354;2023-02-28T08:18:34;4.90;;;1.67;;
78672;SDS011;67988;60.086;30.354;2023-02-28T08:21:07;2.58;;;2.38;;
78672;SDS011;67988;60.086;30.354;2023-02-28T08:23:34;3.90;;;0.98;;
78672;SDS011;67988;60.086;30.354;2023-02-28T08:26:01;4.00;;;1.73;;
78672;SDS011;67988;60.086;30.354;2023-02-28T08:28:29;2.35;;;1.33;;
78672;SDS011;67988;60.086;30.354;2023-02-28T08:30:56;1.40;;;0.98;;
78672;SDS011;67988;60.086;30.354;2023-02-28T08:33:24;3.75;;;0.95;;
78672;SDS011;67988;60.086;30.354;2023-02-28T08:35:52;1.77;;;1.02;;
78672;SDS011;67988;60.086;30.354;2023-02-28T08:38:21;3.75;;;2.03;;
78672;SDS011;67988;60.086;30.354;2023-02-28T08:40:49;1.25;;;1.13;;
78672;SDS011;67988;60.086;30.354;2023-02-28T08:43:16;2.17;;;1.27;;
78672;SDS011;67988;60.086;30.354;2023-02-28T08:45:43;3.75;;;1.02;;
78672;SDS011;67988;60.086;30.354;2023-02-28T08:48:10;3.53;;;2.72;;
78672;SDS011;67988;60.086;30.354;2023-02-28T08:50:37;6.88;;;1.65;;
78672;SDS011;67988;60.086;30.354;2023-02-28T08:53:04;1.33;;;0.75;;
78672;SDS011;67988;60.086;30.354;2023-02-28T08:55:32;2.30;;;1.15;;
78672;SDS011;67988;60.086;30.354;2023-02-28T08:57:59;4.28;;;1.42;;
78672;SDS011;67988;60.086;30.354;2023-02-28T09:00:26;0.98;;;0.85;;
78672;SDS011;67988;60.086;30.354;2023-02-28T09:02:53;5.05;;;2.28;;
78672;SDS011;67988;60.086;30.354;2023-02-28T09:05:20;9.27;;;1.23;;
78672;SDS011;67988;60.086;30.354;2023-02-28T09:07:49;7.30;;;1.75;;
78672;SDS011;67988;60.086;30.354;2023-02-28T09:10:16;6.22;;;1.35;;
78672;SDS011;67988;60.086;30.354;2023-02-28T09:12:44;3.50;;;0.98;;
78672;SDS011;67988;60.086;30.354;2023-02-28T09:15:12;2.80;;;1.50;;
78672;SDS011;67988;60.086;30.354;2023-02-28T09:17:39;1.73;;;1.52;;
78672;SDS011;67988;60.086;30.354;2023-02-28T09:20:06;2.53;;;0.88;;
78672;SDS011;67988;60.086;30.354;2023-02-28T09:22:34;3.65;;;1.35;;
78672;SDS011;67988;60.086;30.354;2023-02-28T09:25:01;3.78;;;1.63;;
78672;SDS011;67988;60.086;30.354;2023-02-28T09:27:29;4.55;;;1.20;;
78672;SDS011;67988;60.086;30.354;2023-02-28T09:29:57;1.83;;;0.80;;
78672;SDS011;67988;60.086;30.354;2023-02-28T09:32:24;3.10;;;1.30;;
78672;SDS011;67988;60.086;30.354;2023-02-28T09:34:51;1.55;;;0.93;;
78672;SDS011;67988;60.086;30.354;2023-02-28T09:37:18;1.20;;;0.93;;
78672;SDS011;67988;60.086;30.354;2023-02-28T09:39:45;1.30;;;0.80;;
78672;SDS011;67988;60.086;30.354;2023-02-28T09:42:14;2.70;;;0.98;;
78672;SDS011;67988;60.086;30.354;2023-02-28T09:44:48;3.08;;;1.85;;
78672;SDS011;67988;60.086;30.354;2023-02-28T09:47:21;3.72;;;1.17;;
78672;SDS011;67988;60.086;30.354;2023-02-28T09:49:56;2.13;;;1.30;;
78672;SDS011;67988;60.086;30.354;2023-02-28T09:52:27;3.92;;;0.75;;
78672;SDS011;67988;60.086;30.354;2023-02-28T09:54:56;1.63;;;1.00;;
78672;SDS011;67988;60.086;30.354;2023-02-28T09:57:29;2.13;;;1.15;;
78672;SDS011;67988;60.086;30.354;2023-02-28T10:00:03;6.80;;;1.23;;
78672;SDS011;67988;60.086;30.354;2023-02-28T10:02:54;2.03;;;0.95;;
78672;SDS011;67988;60.086;30.354;2023-02-28T10:05:31;1.80;;;1.30;;
78672;SDS011;67988;60.086;30.354;2023-02-28T10:08:05;2.92;;;1.10;;
78672;SDS011;67988;60.086;30.354;2023-02-28T10:10:39;1.50;;;0.95;;
78672;SDS011;67988;60.086;30.354;2023-02-28T10:13:13;3.83;;;1.30;;
78672;SDS011;67988;60.086;30.354;2023-02-28T10:15:44;4.32;;;1.27;;
78672;SDS011;67988;60.086;30.354;2023-02-28T10:18:15;1.88;;;1.17;;
78672;SDS011;67988;60.086;30.354;2023-02-28T10:20:51;2.33;;;0.82;;
78672;SDS011;67988;60.086;30.354;2023-02-28T10:23:21;1.38;;;1.13;;
78672;SDS011;67988;60.086;30.354;2023-02-28T10:25:54;3.05;;;1.70;;
78672;SDS011;67988;60.086;30.354;2023-02-28T10:28:24;2.92;;;1.48;;
78672;SDS011;67988;60.086;30.354;2023-02-28T10:30:52;4.72;;;1.90;;
78672;SDS011;67988;60.086;30.354;2023-02-28T10:33:23;2.05;;;1.58;;
78672;SDS011;67988;60.086;30.354;2023-02-28T10:35:52;3.17;;;1.30;;
78672;SDS011;67988;60.086;30.354;2023-02-28T10:38:20;2.50;;;1.25;;
78672;SDS011;67988;60.086;30.354;2023-02-28T10:40:49;7.30;;;1.83;;
78672;SDS011;67988;60.086;30.354;2023-02-28T10:43:20;2.35;;;0.98;;
78672;SDS011;67988;60.086;30.354;2023-02-28T10:45:53;1.13;;;1.05;;
78672;SDS011;67988;60.086;30.354;2023-02-28T10:48:35;3.67;;;1.13;;
78672;SDS011;67988;60.086;30.354;2023-02-28T10:53:39;7.65;;;1.88;;
78672;SDS011;67988;60.086;30.354;2023-02-28T10:56:15;2.58;;;1.27;;
78672;SDS011;67988;60.086;30.354;2023-02-28T10:58:50;3.50;;;1.33;;
78672;SDS011;67988;60.086;30.354;2023-02-28T11:01:20;6.30;;;1.00;;
78672;SDS011;67988;60.086;30.354;2023-02-28T11:03:51;5.75;;;1.17;;
78672;SDS011;67988;60.086;30.354;2023-02-28T11:06:19;3.03;;;0.85;;
78672;SDS011;67988;60.086;30.354;2023-02-28T11:08:49;4.40;;;2.10;;
78672;SDS011;67988;60.086;30.354;2023-02-28T11:11:18;1.58;;;0.65;;
78672;SDS011;67988;60.086;30.354;2023-02-28T11:16:15;1.67;;;1.23;;
78672;SDS011;67988;60.086;30.354;2023-02-28T11:18:43;1.10;;;0.85;;
78672;SDS011;67988;60.086;30.354;2023-02-28T11:21:17;1.85;;;0.73;;
78672;SDS011;67988;60.086;30.354;2023-02-28T11:23:48;1.45;;;0.82;;
78672;SDS011;67988;60.086;30.354;2023-02-28T11:26:17;2.70;;;1.35;;
78672;SDS011;67988;60.086;30.354;2023-02-28T11:29:05;3.47;;;0.98;;
78672;SDS011;67988;60.086;30.354;2023-02-28T11:31:37;2.42;;;0.82;;
78672;SDS011;67988;60.086;30.354;2023-02-28T11:34:20;1.15;;;0.80;;
78672;SDS011;67988;60.086;30.354;2023-02-28T11:36:52;2.20;;;2.00;;
78672;SDS011;67988;60.086;30.354;2023-02-28T11:39:22;4.32;;;2.20;;
78672;SDS011;67988;60.086;30.354;2023-02-28T11:44:35;1.63;;;1.52;;
78672;SDS011;67988;60.086;30.354;2023-02-28T11:47:13;2.65;;;0.88;;
78672;SDS011;67988;60.086;30.354;2023-02-28T11:49:47;1.85;;;0.90;;
78672;SDS011;67988;60.086;30.354;2023-02-28T11:52:29;2.78;;;1.38;;
78672;SDS011;67988;60.086;30.354;2023-02-28T11:55:07;3.95;;;1.10;;
78672;SDS011;67988;60.086;30.354;2023-02-28T12:00:36;3.80;;;1.00;;
78672;SDS011;67988;60.086;30.354;2023-02-28T12:03:16;1.63;;;0.60;;
78672;SDS011;67988;60.086;30.354;2023-02-28T12:05:56;2.35;;;0.95;;
78672;SDS011;67988;60.086;30.354;2023-02-28T12:08:37;2.15;;;1.95;;
78672;SDS011;67988;60.086;30.354;2023-02-28T12:11:19;6.80;;;1.17;;
78672;SDS011;67988;60.086;30.354;2023-02-28T12:16:42;3.17;;;0.88;;
78672;SDS011;67988;60.086;30.354;2023-02-28T12:19:20;4.05;;;0.65;;
78672;SDS011;67988;60.086;30.354;2023-02-28T12:22:00;4.75;;;1.30;;
78672;SDS011;67988;60.086;30.354;2023-02-28T12:24:47;2.10;;;1.35;;
78672;SDS011;67988;60.086;30.354;2023-02-28T12:27:22;3.30;;;1.05;;
78672;SDS011;67988;60.086;30.354;2023-02-28T12:29:54;5.50;;;1.48;;
78672;SDS011;67988;60.086;30.354;2023-02-28T12:32:26;2.25;;;1.20;;
78672;SDS011;67988;60.086;30.354;2023-02-28T12:34:58;1.73;;;0.88;;
78672;SDS011;67988;60.086;30.354;2023-02-28T12:37:29;4.93;;;1.58;;
78672;SDS011;67988;60.086;30.354;2023-02-28T12:40:02;3.35;;;1.10;;
78672;SDS011;67988;60.086;30.354;2023-02-28T12:42:33;3.65;;;1.52;;
78672;SDS011;67988;60.086;30.354;2023-02-28T12:45:08;7.05;;;1.25;;
78672;SDS011;67988;60.086;30.354;2023-02-28T12:47:40;1.77;;;0.88;;
78672;SDS011;67988;60.086;30.354;2023-02-28T12:50:11;6.15;;;0.68;;
78672;SDS011;67988;60.086;30.354;2023-02-28T12:52:40;1.58;;;0.85;;
78672;SDS011;67988;60.086;30.354;2023-02-28T12:55:17;2.58;;;0.82;;
78672;SDS011;67988;60.086;30.354;2023-02-28T12:57:52;2.50;;;0.82;;
78672;SDS011;67988;60.086;30.354;2023-02-28T13:00:29;2.08;;;0.55;;
78672;SDS011;67988;60.086;30.354;2023-02-28T13:03:07;2.03;;;1.10;;
78672;SDS011;67988;60.086;30.354;2023-02-28T13:06:10;1.42;;;0.75;;
78672;SDS011;67988;60.086;30.354;2023-02-28T13:09:11;3.25;;;1.27;;
78672;SDS011;67988;60.086;30.354;2023-02-28T13:11:42;3.10;;;1.35;;
78672;SDS011;67988;60.086;30.354;2023-02-28T13:16:58;1.98;;;1.23;;
78672;SDS011;67988;60.086;30.354;2023-02-28T13:19:29;4.88;;;1.27;;
78672;SDS011;67988;60.086;30.354;2023-02-28T13:21:58;2.70;;;1.08;;
78672;SDS011;67988;60.086;30.354;2023-02-28T13:24:43;5.97;;;1.63;;
78672;SDS011;67988;60.086;30.354;2023-02-28T13:33:21;3.15;;;1.58;;
78672;SDS011;67988;60.086;30.354;2023-02-28T13:36:01;2.72;;;1.50;;
78672;SDS011;67988;60.086;30.354;2023-02-28T13:38:35;9.23;;;2.15;;
78672;SDS011;67988;60.086;30.354;2023-02-28T13:44:10;5.25;;;0.90;;
78672;SDS011;67988;60.086;30.354;2023-02-28T13:49:38;7.72;;;0.65;;
78672;SDS011;67988;60.086;30.354;2023-02-28T13:52:07;2.50;;;0.98;;
78672;SDS011;67988;60.086;30.354;2023-02-28T13:54:44;0.77;;;0.77;;
78672;SDS011;67988;60.086;30.354;2023-02-28T13:57:33;2.25;;;0.63;;
78672;SDS011;67988;60.086;30.354;2023-02-28T14:00:18;1.17;;;1.08;;
78672;SDS011;67988;60.086;30.354;2023-02-28T14:03:07;1.95;;;1.25;;
78672;SDS011;67988;60.086;30.354;2023-02-28T14:05:45;2.25;;;1.48;;
78672;SDS011;67988;60.086;30.354;2023-02-28T14:08:13;1.70;;;0.47;;
78672;SDS011;67988;60.086;30.354;2023-02-28T14:10:46;3.92;;;1.17;;
78672;SDS011;67988;60.086;30.354;2023-02-28T14:16:11;1.30;;;1.25;;
78672;SDS011;67988;60.086;30.354;2023-02-28T14:18:40;2.35;;;1.20;;
78672;SDS011;67988;60.086;30.354;2023-02-28T14:21:10;2.80;;;1.33;;
78672;SDS011;67988;60.086;30.354;2023-02-28T14:33:01;4.28;;;1.40;;
78672;SDS011;67988;60.086;30.354;2023-02-28T14:35:45;1.92;;;1.13;;
78672;SDS011;67988;60.086;30.354;2023-02-28T14:38:21;4.93;;;1.35;;
78672;SDS011;67988;60.086;30.354;2023-02-28T14:40:52;3.85;;;1.80;;
78672;SDS011;67988;60.086;30.354;2023-02-28T14:43:21;3.90;;;2.10;;
78672;SDS011;67988;60.086;30.354;2023-02-28T14:45:50;3.10;;;2.03;;
78672;SDS011;67988;60.086;30.354;2023-02-28T14:48:20;2.20;;;1.45;;
78672;SDS011;67988;60.086;30.354;2023-02-28T14:50:49;4.72;;;1.80;;
78672;SDS011;67988;60.086;30.354;2023-02-28T14:53:19;11.70;;;2.13;;
78672;SDS011;67988;60.086;30.354;2023-02-28T14:55:48;12.63;;;2.88;;
78672;SDS011;67988;60.086;30.354;2023-02-28T14:58:24;9.90;;;2.80;;
78672;SDS011;67988;60.086;30.354;2023-02-28T15:00:54;2.05;;;1.17;;
78672;SDS011;67988;60.086;30.354;2023-02-28T15:03:24;5.95;;;1.55;;
78672;SDS011;67988;60.086;30.354;2023-02-28T15:05:58;7.55;;;2.95;;
78672;SDS011;67988;60.086;30.354;2023-02-28T15:08:26;4.72;;;2.03;;
78672;SDS011;67988;60.086;30.354;2023-02-28T15:10:55;4.85;;;1.85;;
78672;SDS011;67988;60.086;30.354;2023-02-28T15:13:24;4.80;;;2.13;;
78672;SDS011;67988;60.086;30.354;2023-02-28T15:15:58;7.45;;;4.13;;
78672;SDS011;67988;60.086;30.354;2023-02-28T15:18:33;5.15;;;2.38;;
78672;SDS011;67988;60.086;30.354;2023-02-28T15:21:07;26.85;;;3.97;;
78672;SDS011;67988;60.086;30.354;2023-02-28T15:23:38;3.88;;;1.73;;
78672;SDS011;67988;60.086;30.354;2023-02-28T15:26:10;7.57;;;1.67;;
78672;SDS011;67988;60.086;30.354;2023-02-28T15:28:42;2.55;;;1.00;;
78672;SDS011;67988;60.086;30.354;2023-02-28T15:31:19;4.57;;;2.38;;
78672;SDS011;67988;60.086;30.354;2023-02-28T15:33:54;6.80;;;3.03;;
78672;SDS011;67988;60.086;30.354;2023-02-28T15:36:24;11.05;;;3.47;;
78672;SDS011;67988;60.086;30.354;2023-02-28T15:38:55;6.13;;;3.47;;
78672;SDS011;67988;60.086;30.354;2023-02-28T15:41:24;6.35;;;3.03;;
78672;SDS011;67988;60.086;30.354;2023-02-28T15:46:45;7.05;;;3.00;;
78672;SDS011;67988;60.086;30.354;2023-02-28T15:49:22;3.40;;;2.00;;